Time,TemperatureF,DewpointF,PressureIn,WindDirection,WindDirectionDegrees,WindSpeedMPH,WindSpeedGustMPH,Humidity,HourlyPrecipIn,Conditions,Clouds,dailyrainin,SoftwareType,DateUTC
2013-05-14 00:11:00,81.0,51.0,29.25,SSE,156,12.0,-999.0,35,0.00,,,0.01,,2013-05-14 07:11:00,
2013-05-14 00:21:00,81.0,51.0,29.25,SSE,156,12.0,-999.0,35,0.00,,,0.01,,2013-05-14 07:21:00,
2013-05-14 00:31:00,81.0,51.0,29.25,SSE,156,12.0,-999.0,35,0.00,,,0.01,,2013-05-14 07:31:00,
2013-05-14 00:41:00,81.0,51.0,29.25,SSE,156,12.0,-999.0,35,0.00,,,0.01,,2013-05-14 07:41:00,
2013-05-14 01:11:00,79.0,53.0,29.26,East,84,7.0,-999.0,41,-99.99,,,0.00,,2013-05-14 08:11:00,
2013-05-14 01:21:00,79.0,53.0,29.26,East,84,7.0,-999.0,41,-99.99,,,0.00,,2013-05-14 08:21:00,
2013-05-14 01:31:00,79.0,53.0,29.26,East,84,7.0,-999.0,41,-99.99,,,0.00,,2013-05-14 08:31:00,
2013-05-14 01:41:00,79.0,53.0,29.26,East,84,7.0,-999.0,41,-99.99,,,0.00,,2013-05-14 08:41:00,
2013-05-14 02:11:00,76.0,51.0,29.26,SW,231,4.0,-999.0,42,0.00,,,0.00,,2013-05-14 09:11:00,
2013-05-14 02:21:00,76.0,51.0,29.26,SW,231,4.0,-999.0,42,0.00,,,0.00,,2013-05-14 09:21:00,
2013-05-14 02:32:00,76.0,51.0,29.26,SW,231,4.0,-999.0,42,0.00,,,0.00,,2013-05-14 09:32:00,
2013-05-14 02:44:00,76.0,51.0,29.26,SW,231,4.0,-999.0,42,0.00,,,0.00,,2013-05-14 09:44:00,
2013-05-14 03:14:00,72.0,51.0,29.27,WNW,298,2.0,-999.0,47,0.00,,,0.00,,2013-05-14 10:14:00,
2013-05-14 03:25:00,72.0,51.0,29.27,WNW,298,2.0,-999.0,47,0.00,,,0.00,,2013-05-14 10:25:00,
2013-05-14 03:32:00,72.0,51.0,29.27,WNW,298,2.0,-999.0,47,0.00,,,0.00,,2013-05-14 10:32:00,
2013-05-14 03:42:00,72.0,51.0,29.27,WNW,298,2.0,-999.0,47,0.00,,,0.00,,2013-05-14 10:42:00,
2013-05-14 05:12:00,72.0,54.0,29.26,West,280,3.0,-999.0,54,-99.99,,,0.00,,2013-05-14 12:12:00,
2013-05-14 05:21:00,72.0,54.0,29.26,West,280,3.0,-999.0,54,-99.99,,,0.00,,2013-05-14 12:21:00,
2013-05-14 05:32:00,72.0,54.0,29.26,West,280,3.0,-999.0,54,-99.99,,,0.00,,2013-05-14 12:32:00,
2013-05-14 05:42:00,72.0,54.0,29.26,West,280,3.0,-999.0,54,-99.99,,,0.00,,2013-05-14 12:42:00,
2013-05-14 06:11:00,68.0,53.0,29.28,South,175,1.0,-999.0,58,0.00,,,0.00,,2013-05-14 13:11:00,
2013-05-14 06:22:00,68.0,53.0,29.28,South,175,1.0,-999.0,58,0.00,,,0.00,,2013-05-14 13:22:00,
2013-05-14 06:32:00,68.0,53.0,29.28,South,175,1.0,-999.0,58,0.00,,,0.00,,2013-05-14 13:32:00,
2013-05-14 06:41:00,68.0,53.0,29.28,South,175,1.0,-999.0,58,0.00,,,0.00,,2013-05-14 13:41:00,
2013-05-14 07:11:00,65.0,54.0,29.29,SW,224,1.0,-999.0,67,0.00,,,-99.99,,2013-05-14 14:11:00,
2013-05-14 07:22:00,65.0,54.0,29.29,SW,224,1.0,-999.0,67,0.00,,,-99.99,,2013-05-14 14:22:00,
2013-05-14 07:31:00,65.0,54.0,29.29,SW,224,1.0,-999.0,67,0.00,,,-99.99,,2013-05-14 14:31:00,
2013-05-14 07:41:00,65.0,54.0,29.29,SW,224,1.0,-999.0,67,0.00,,,-99.99,,2013-05-14 14:41:00,
2013-05-14 08:12:00,76.0,52.0,29.30,SW,220,1.0,-999.0,44,-99.99,,,0.00,,2013-05-14 15:12:00,
2013-05-14 08:21:00,76.0,52.0,29.30,SW,220,1.0,-999.0,44,-99.99,,,0.00,,2013-05-14 15:21:00,
2013-05-14 08:32:00,76.0,52.0,29.30,SW,220,1.0,-999.0,44,-99.99,,,0.00,,2013-05-14 15:32:00,
2013-05-14 08:43:00,76.0,52.0,29.30,SW,220,1.0,-999.0,44,-99.99,,,0.00,,2013-05-14 15:43:00,
2013-05-14 09:12:00,77.0,50.0,29.32,WNW,285,3.0,-999.0,39,0.00,,,-99.99,,2013-05-14 16:12:00,
2013-05-14 09:23:00,77.0,50.0,29.32,WNW,285,3.0,-999.0,39,0.00,,,-99.99,,2013-05-14 16:23:00,
2013-05-14 09:33:00,77.0,50.0,29.32,WNW,285,3.0,-999.0,39,0.00,,,-99.99,,2013-05-14 16:33:00,
2013-05-14 09:43:00,77.0,50.0,29.32,WNW,285,3.0,-999.0,39,0.00,,,-99.99,,2013-05-14 16:43:00,
2013-05-14 10:13:00,79.0,48.0,29.32,West,273,4.0,-999.0,34,0.01,,,0.00,,2013-05-14 17:13:00,
2013-05-14 10:24:00,79.0,48.0,29.32,West,273,4.0,-999.0,34,0.01,,,0.00,,2013-05-14 17:24:00,
2013-05-14 10:32:00,79.0,48.0,29.32,West,273,4.0,-999.0,34,0.01,,,0.00,,2013-05-14 17:32:00,
2013-05-14 10:43:00,79.0,48.0,29.32,West,273,4.0,-999.0,34,0.01,,,0.00,,2013-05-14 17:43:00,
2013-05-14 11:12:00,81.0,48.0,29.33,ESE,110,1.0,-999.0,32,0.00,,,0.00,,2013-05-14 18:12:00,
2013-05-14 11:22:00,81.0,48.0,29.33,ESE,110,1.0,-999.0,32,0.00,,,0.00,,2013-05-14 18:22:00,
2013-05-14 11:32:00,81.0,48.0,29.33,ESE,110,1.0,-999.0,32,0.00,,,0.00,,2013-05-14 18:32:00,
2013-05-14 11:42:00,81.0,48.0,29.33,ESE,110,1.0,-999.0,32,0.00,,,0.00,,2013-05-14 18:42:00,
2013-05-14 12:11:00,88.0,38.0,29.32,ENE,74,5.0,-999.0,17,0.00,,,0.00,,2013-05-14 19:11:00,
2013-05-14 13:11:00,87.0,42.0,29.30,West,278,6.0,-999.0,21,0.01,,,0.00,,2013-05-14 20:11:00,
2013-05-14 13:23:00,87.0,42.0,29.30,West,278,6.0,-999.0,21,0.01,,,0.00,,2013-05-14 20:23:00,
2013-05-14 13:32:00,87.0,42.0,29.30,West,278,6.0,-999.0,21,0.01,,,0.00,,2013-05-14 20:32:00,
2013-05-14 14:12:00,89.0,43.0,29.28,West,262,6.0,-999.0,20,0.00,,,0.00,,2013-05-14 21:12:00,
2013-05-14 14:23:00,89.0,43.0,29.28,West,262,6.0,-999.0,20,0.00,,,0.00,,2013-05-14 21:23:00,
2013-05-14 14:33:00,89.0,43.0,29.28,West,262,6.0,-999.0,20,0.00,,,0.00,,2013-05-14 21:33:00,
2013-05-14 14:42:00,89.0,43.0,29.28,West,262,6.0,-999.0,20,0.00,,,0.00,,2013-05-14 21:42:00,
2013-05-14 15:13:00,92.0,36.0,29.26,WSW,246,6.0,-999.0,14,0.00,,,0.00,,2013-05-14 22:13:00,
2013-05-14 16:12:00,92.0,37.0,29.24,West,262,6.0,-999.0,15,0.00,,,0.00,,2013-05-14 23:12:00,
2013-05-14 16:21:00,92.0,37.0,29.24,West,262,6.0,-999.0,15,0.00,,,0.00,,2013-05-14 23:21:00,
2013-05-14 16:31:00,92.0,37.0,29.24,West,262,6.0,-999.0,15,0.00,,,0.00,,2013-05-14 23:31:00,
2013-05-14 16:44:00,92.0,37.0,29.24,West,262,6.0,-999.0,15,0.00,,,0.00,,2013-05-14 23:44:00,
2013-05-14 17:11:00,91.0,40.0,29.23,WNW,289,3.0,-999.0,17,0.00,,,-99.99,,2013-05-15 00:11:00,
2013-05-14 17:21:00,91.0,40.0,29.23,WNW,289,3.0,-999.0,17,0.00,,,-99.99,,2013-05-15 00:21:00,
2013-05-14 17:32:00,91.0,40.0,29.23,WNW,289,3.0,-999.0,17,0.00,,,-99.99,,2013-05-15 00:32:00,
2013-05-14 17:41:00,91.0,40.0,29.23,WNW,289,3.0,-999.0,17,0.00,,,-99.99,,2013-05-15 00:41:00,
2013-05-14 18:11:00,90.0,36.0,29.23,West,270,5.0,-999.0,15,0.00,,,0.00,,2013-05-15 01:11:00,
2013-05-14 18:21:00,90.0,36.0,29.23,West,270,5.0,-999.0,15,0.00,,,0.00,,2013-05-15 01:21:00,
2013-05-14 18:31:00,90.0,36.0,29.23,West,270,5.0,-999.0,15,0.00,,,0.00,,2013-05-15 01:31:00,
2013-05-14 18:42:00,90.0,36.0,29.23,West,270,5.0,-999.0,15,0.00,,,0.00,,2013-05-15 01:42:00,
2013-05-14 19:11:00,87.0,44.0,29.24,West,281,1.0,-999.0,23,0.00,,,0.00,,2013-05-15 02:11:00,
2013-05-14 19:21:00,87.0,44.0,29.24,West,281,1.0,-999.0,23,0.00,,,0.00,,2013-05-15 02:21:00,
2013-05-14 19:31:00,87.0,44.0,29.24,West,281,1.0,-999.0,23,0.00,,,0.00,,2013-05-15 02:31:00,
2013-05-14 19:42:00,87.0,44.0,29.24,West,281,1.0,-999.0,23,0.00,,,0.00,,2013-05-15 02:42:00,
2013-05-14 20:12:00,83.0,48.0,29.26,WNW,283,2.0,-999.0,30,0.00,,,0.00,,2013-05-15 03:12:00,
2013-05-14 20:21:00,83.0,48.0,29.26,WNW,283,2.0,-999.0,30,0.00,,,0.00,,2013-05-15 03:21:00,
2013-05-14 20:33:00,83.0,48.0,29.26,WNW,283,2.0,-999.0,30,0.00,,,0.00,,2013-05-15 03:33:00,
2013-05-14 20:44:00,83.0,48.0,29.26,WNW,283,2.0,-999.0,30,0.00,,,0.00,,2013-05-15 03:44:00,
2013-05-14 21:12:00,80.0,45.0,29.27,South,180,3.0,-999.0,29,0.00,,,0.00,,2013-05-15 04:12:00,
2013-05-14 21:23:00,80.0,45.0,29.27,South,180,3.0,-999.0,29,0.00,,,0.00,,2013-05-15 04:23:00,
2013-05-14 21:33:00,80.0,45.0,29.27,South,180,3.0,-999.0,29,0.00,,,0.00,,2013-05-15 04:33:00,
2013-05-14 21:42:00,80.0,45.0,29.27,South,180,3.0,-999.0,29,0.00,,,0.00,,2013-05-15 04:42:00,
2013-05-14 22:12:00,78.0,48.0,29.28,ENE,69,7.0,-999.0,34,0.00,,,0.00,,2013-05-15 05:12:00,
2013-05-14 22:22:00,78.0,48.0,29.28,ENE,69,7.0,-999.0,34,0.00,,,0.00,,2013-05-15 05:22:00,
2013-05-14 22:32:00,78.0,48.0,29.28,ENE,69,7.0,-999.0,34,0.00,,,0.00,,2013-05-15 05:32:00,
2013-05-14 22:42:00,78.0,48.0,29.28,ENE,69,7.0,-999.0,34,0.00,,,0.00,,2013-05-15 05:42:00,
2013-05-14 23:11:00,77.0,51.0,29.30,SSE,151,4.0,-999.0,41,0.00,,,0.00,,2013-05-15 06:11:00,
2013-05-14 23:21:00,77.0,51.0,29.30,SSE,151,4.0,-999.0,41,0.00,,,0.00,,2013-05-15 06:21:00,
2013-05-14 23:31:00,77.0,51.0,29.30,SSE,151,4.0,-999.0,41,0.00,,,0.00,,2013-05-15 06:31:00,
2013-05-14 23:41:00,77.0,51.0,29.30,SSE,151,4.0,-999.0,41,0.00,,,0.00,,2013-05-15 06:41:00,